Time;durP1;ratioP1;P1;durP2;ratioP2;P2;SDS_P1;SDS_P2;PMS_P1;PMS_P2;Temp;Humidity;BMP_temperature;BMP_pressure;BME280_temperature;BME280_humidity;BME280_pressure;Samples;Min_cycle;Max_cycle;Signal;HPM_P1;HPM_P2
2024/03/01 00:00:11;;;;;;;2.33;2.13;;;23.10;40.90;;;;;;10351333;28;20073;-53
2024/03/01 00:05:13;;;;;;;2.38;2.05;;;23.00;40.90;;;;;;10355354;28;20141;-51
2024/03/01 00:10:16;;;;;;;2.25;1.90;;;23.10;40.80;;;;;;10360597;28;20698;-50
2024/03/01 00:15:17;;;;;;;2.38;2.17;;;23.10;40.80;;;;;;10353967;28;20120;-50
2024/03/01 00:20:19;;;;;;;2.17;1.98;;;23.10;40.60;;;;;;10354881;28;20128;-50
2024/03/01 00:25:22;;;;;;;2.55;2.35;;;23.20;40.40;;;;;;10361516;28;20531;-49
2024/03/01 00:30:24;;;;;;;3.28;2.20;;;23.10;40.50;;;;;;10352073;28;20152;-52
2024/03/01 00:35:25;;;;;;;3.13;2.20;;;23.00;40.70;;;;;;10357037;28;20648;-50
2024/03/01 00:40:28;;;;;;;2.30;2.10;;;23.00;40.60;;;;;;10358424;28;20137;-51
2024/03/01 00:45:30;;;;;;;2.50;2.30;;;22.90;40.60;;;;;;10370513;28;20140;-49
2024/03/01 00:50:31;;;;;;;2.50;2.30;;;23.10;40.30;;;;;;10369784;28;20129;-51
2024/03/01 00:55:35;;;;;;;2.42;2.22;;;22.90;40.50;;;;;;10368370;28;20388;-53
2024/03/01 01:00:36;;;;;;;2.50;2.30;;;22.90;40.70;;;;;;10364897;28;20116;-50
2024/03/01 01:05:38;;;;;;;2.08;1.88;;;22.80;40.80;;;;;;10360786;28;20128;-53
2024/03/01 01:10:41;;;;;;;2.40;2.20;;;22.70;40.70;;;;;;10360717;28;20141;-56
2024/03/01 01:15:43;;;;;;;2.70;2.40;;;22.80;40.80;;;;;;10362663;28;20108;-50
2024/03/01 01:20:45;;;;;;;2.75;2.55;;;22.60;40.70;;;;;;10364943;28;20411;-55
2024/03/01 01:25:48;;;;;;;2.30;2.10;;;22.80;40.60;;;;;;10365353;28;20475;-49
2024/03/01 01:30:50;;;;;;;2.50;2.30;;;22.60;40.70;;;;;;10361429;28;20125;-49
2024/03/01 01:35:51;;;;;;;2.53;2.30;;;22.60;40.70;;;;;;10358965;28;20125;-53
2024/03/01 01:40:57;;;;;;;2.50;2.30;;;22.50;40.70;;;;;;10367369;28;20057;-51
2024/03/01 01:45:59;;;;;;;2.63;2.40;;;22.50;40.60;;;;;;10365116;28;20057;-50
2024/03/01 01:51:01;;;;;;;2.50;2.30;;;22.40;40.80;;;;;;10360102;28;20123;-54
2024/03/01 01:56:04;;;;;;;2.45;2.25;;;22.50;40.90;;;;;;10358826;28;20157;-56
2024/03/01 02:01:07;;;;;;;2.63;2.42;;;22.50;41.30;;;;;;10362281;28;20052;-54
2024/03/01 02:06:09;;;;;;;2.60;2.40;;;22.60;41.00;;;;;;10361421;28;20054;-54
2024/03/01 02:11:12;;;;;;;2.40;2.20;;;22.50;41.00;;;;;;10359895;28;20469;-56
2024/03/01 02:16:13;;;;;;;2.40;2.20;;;22.60;40.70;;;;;;10355176;28;20089;-57
2024/03/01 02:21:16;;;;;;;2.75;2.40;;;22.40;41.00;;;;;;10351155;28;20137;-54
2024/03/01 02:26:19;;;;;;;2.60;2.40;;;22.60;40.60;;;;;;10353003;28;20137;-56
2024/03/01 02:31:22;;;;;;;2.85;2.50;;;22.60;40.60;;;;;;10356618;28;20055;-54
2024/03/01 02:36:24;;;;;;;2.42;2.22;;;22.40;40.60;;;;;;10360208;28;20053;-53
2024/03/01 02:41:27;;;;;;;2.55;2.28;;;22.60;40.30;;;;;;10357918;28;20210;-56
2024/03/01 02:46:28;;;;;;;2.60;2.40;;;22.40;41.00;;;;;;10357646;28;20133;-53
2024/03/01 02:51:30;;;;;;;2.65;2.28;;;22.40;41.10;;;;;;10361442;28;20149;-53
2024/03/01 02:56:33;;;;;;;2.97;2.38;;;22.50;41.00;;;;;;10363181;28;20052;-55
2024/03/01 03:01:35;;;;;;;2.50;2.30;;;22.50;41.10;;;;;;10355562;28;20141;-56
2024/03/01 03:06:36;;;;;;;2.63;2.42;;;22.30;41.40;;;;;;10354440;28;20404;-54
2024/03/01 03:11:39;;;;;;;2.55;2.35;;;22.40;41.10;;;;;;10358652;28;20133;-53
2024/03/01 03:16:41;;;;;;;3.10;2.72;;;22.30;40.70;;;;;;10357472;28;20168;-55
2024/03/01 03:21:42;;;;;;;2.63;2.42;;;22.40;40.40;;;;;;10358059;28;20583;-57
2024/03/01 03:26:45;;;;;;;2.60;2.40;;;22.40;40.60;;;;;;10353572;28;20347;-54
2024/03/01 03:31:47;;;;;;;2.67;2.47;;;22.40;40.80;;;;;;10355548;28;20136;-53
2024/03/01 03:36:49;;;;;;;3.35;2.40;;;22.60;40.60;;;;;;10352137;28;20053;-55
2024/03/01 03:41:52;;;;;;;3.05;2.80;;;22.50;40.70;;;;;;10348856;28;20527;-53
2024/03/01 03:46:54;;;;;;;2.60;2.40;;;22.40;40.90;;;;;;10347491;28;20133;-56
2024/03/01 03:51:56;;;;;;;2.80;2.60;;;22.40;40.60;;;;;;10357193;28;20108;-49
2024/03/01 03:56:59;;;;;;;2.95;2.65;;;22.60;40.10;;;;;;10355549;28;20050;-52
2024/03/01 04:02:01;;;;;;;2.80;2.50;;;22.40;40.40;;;;;;10354833;28;20136;-52
2024/03/01 04:07:03;;;;;;;2.85;2.65;;;22.30;40.70;;;;;;10360939;28;20156;-50
2024/03/01 04:12:07;;;;;;;3.10;2.80;;;22.70;40.60;;;;;;10357063;28;20092;-55
2024/03/01 04:17:10;;;;;;;3.45;2.55;;;22.70;40.80;;;;;;10356824;28;20068;-50
2024/03/01 04:22:13;;;;;;;2.67;2.47;;;22.80;41.00;;;;;;10360825;28;20042;-49
2024/03/01 04:27:16;;;;;;;2.90;2.65;;;22.90;41.10;;;;;;10348684;28;20515;-51
2024/03/01 04:32:18;;;;;;;2.80;2.45;;;22.90;40.90;;;;;;10352540;28;20350;-51
2024/03/01 04:37:19;;;;;;;2.65;2.45;;;22.80;41.10;;;;;;10351854;28;20471;-52
2024/03/01 04:42:22;;;;;;;2.80;2.60;;;23.00;41.00;;;;;;10351212;28;20125;-54
2024/03/01 04:47:24;;;;;;;3.00;2.70;;;23.00;41.10;;;;;;10353552;28;20061;-54
2024/03/01 04:52:26;;;;;;;3.15;2.70;;;23.00;41.20;;;;;;10348993;28;20136;-53
2024/03/01 04:57:29;;;;;;;2.60;2.40;;;23.00;41.00;;;;;;10344061;28;20583;-53
2024/03/01 05:02:32;;;;;;;2.90;2.70;;;23.00;41.20;;;;;;10343755;28;20157;-52
2024/03/01 05:07:34;;;;;;;3.00;2.70;;;23.20;41.00;;;;;;10348645;28;20057;-54
2024/03/01 05:12:37;;;;;;;2.80;2.60;;;23.10;41.10;;;;;;10350171;28;20580;-54
2024/03/01 05:17:40;;;;;;;2.70;2.50;;;23.20;41.00;;;;;;10357228;28;20053;-55
2024/03/01 05:22:43;;;;;;;2.90;2.70;;;23.20;41.00;;;;;;10355272;28;20120;-54
2024/03/01 05:27:47;;;;;;;2.60;2.40;;;23.20;41.00;;;;;;10360284;28;20050;-53
2024/03/01 05:32:49;;;;;;;2.75;2.50;;;23.30;41.00;;;;;;10357771;28;20070;-49
2024/03/01 05:37:51;;;;;;;2.72;2.53;;;23.20;41.00;;;;;;10354374;28;20041;-56
2024/03/01 05:42:54;;;;;;;2.65;2.45;;;23.30;41.10;;;;;;10354967;28;20068;-50
2024/03/01 05:47:57;;;;;;;2.70;2.50;;;23.30;41.20;;;;;;10359601;28;20128;-50
2024/03/01 05:52:59;;;;;;;2.53;2.33;;;23.30;41.30;;;;;;10357813;28;20088;-54
2024/03/01 05:58:03;;;;;;;3.70;3.30;;;23.30;41.40;;;;;;10358231;28;20101;-54
2024/03/01 06:03:05;;;;;;;3.13;2.85;;;23.10;40.90;;;;;;10356285;28;20145;-52
2024/03/01 06:08:07;;;;;;;3.20;2.90;;;23.30;40.60;;;;;;10355910;28;20069;-53
2024/03/01 06:13:09;;;;;;;3.22;2.67;;;23.40;40.20;;;;;;10350990;28;20054;-52
2024/03/01 06:18:11;;;;;;;3.15;2.85;;;23.20;40.80;;;;;;10345997;28;20056;-55
2024/03/01 06:23:13;;;;;;;2.80;2.60;;;23.10;40.90;;;;;;10350599;28;20651;-51
2024/03/01 06:28:16;;;;;;;2.60;2.40;;;23.60;40.00;;;;;;10355457;28;20133;-52
2024/03/01 06:33:19;;;;;;;3.05;2.75;;;23.50;40.10;;;;;;10363214;28;20054;-53
2024/03/01 06:38:20;;;;;;;3.40;3.10;;;23.40;40.30;;;;;;10359585;28;20443;-56
2024/03/01 06:43:23;;;;;;;4.57;2.75;;;23.20;41.20;;;;;;10360099;28;20128;-52
2024/03/01 06:48:25;;;;;;;4.70;2.60;;;22.90;41.90;;;;;;10353734;28;20133;-52
2024/03/01 06:53:27;;;;;;;4.70;2.60;;;22.80;42.00;;;;;;10355793;28;20133;-53
2024/03/01 06:58:30;;;;;;;5.60;2.67;;;22.90;42.10;;;;;;10359517;28;20125;-53
2024/03/01 07:03:35;;;;;;;5.13;2.50;;;23.00;42.20;;;;;;10353874;28;20077;-49
2024/03/01 07:08:37;;;;;;;6.55;2.50;;;23.10;42.90;;;;;;10356679;28;20057;-53
2024/03/01 07:13:40;;;;;;;7.40;2.80;;;23.20;43.40;;;;;;10352587;28;20527;-51
2024/03/01 07:18:51;;;;;;;6.95;3.88;;;23.10;43.40;;;;;;10354579;28;20149;-56
2024/03/01 07:23:58;;;;;;;;;;;23.40;42.30;;;;;;10351575;28;20084;-52
2024/03/01 07:29:02;;;;;;;7.47;4.05;;;23.30;42.30;;;;;;10354074;28;19965;-50
2024/03/01 07:34:03;;;;;;;6.50;3.95;;;23.30;42.00;;;;;;10350805;28;20424;-57
2024/03/01 07:39:05;;;;;;;9.52;5.10;;;23.20;42.20;;;;;;10360221;28;20054;-53
2024/03/01 07:44:08;;;;;;;5.55;4.53;;;23.20;42.20;;;;;;10361526;28;20056;-52
2024/03/01 07:49:10;;;;;;;8.13;5.18;;;23.30;41.60;;;;;;10358913;28;20459;-53
2024/03/01 07:54:11;;;;;;;7.43;5.10;;;23.20;41.80;;;;;;10360641;28;20085;-51
2024/03/01 07:59:14;;;;;;;7.80;5.50;;;23.20;41.50;;;;;;10350238;28;20477;-53
2024/03/01 08:04:16;;;;;;;6.82;5.60;;;23.20;41.60;;;;;;10354000;28;20133;-52
2024/03/01 08:09:18;;;;;;;6.65;5.32;;;23.10;41.70;;;;;;10350423;28;20133;-51
2024/03/01 08:14:23;;;;;;;6.30;5.00;;;23.20;41.40;;;;;;10359342;28;20050;-52
2024/03/01 08:19:30;;;;;;;6.97;5.75;;;23.10;41.90;;;;;;10353028;28;20507;-54
2024/03/01 08:24:32;;;;;;;7.18;5.18;;;23.10;41.70;;;;;;10354163;28;20053;-56
2024/03/01 08:29:35;;;;;;;12.27;5.70;;;23.10;41.40;;;;;;10350161;28;20089;-56
2024/03/01 08:34:41;;;;;;;13.77;5.70;;;23.10;41.40;;;;;;10350163;28;20137;-53
2024/03/01 08:39:42;;;;;;;9.23;5.90;;;23.10;41.30;;;;;;10357759;28;20093;-54
2024/03/01 08:44:53;;;;;;;7.10;5.05;;;23.10;41.50;;;;;;10354024;28;20125;-54
2024/03/01 08:50:41;;;;;;;9.70;5.40;;;23.20;41.20;;;;;;10355688;28;20050;-53
2024/03/01 08:55:43;;;;;;;6.20;5.32;;;23.10;41.60;;;;;;10357933;28;20060;-54
2024/03/01 09:00:48;;;;;;;8.55;5.38;;;23.10;41.40;;;;;;10356409;28;20507;-56
2024/03/01 09:05:50;;;;;;;6.43;5.13;;;23.10;41.20;;;;;;10363247;28;20042;-53
2024/03/01 09:10:53;;;;;;;26.20;9.73;;;23.20;40.80;;;;;;10363487;28;20073;-51
2024/03/01 09:15:57;;;;;;;29.02;11.20;;;23.10;41.20;;;;;;10365987;28;20563;-54
2024/03/01 09:21:00;;;;;;;30.25;10.95;;;23.10;41.30;;;;;;10365123;28;20126;-55
2024/03/01 09:26:02;;;;;;;25.17;10.15;;;23.20;41.00;;;;;;10358723;28;20052;-54
2024/03/01 09:31:05;;;;;;;26.55;10.65;;;23.40;40.80;;;;;;10353076;28;20052;-56
2024/03/01 09:36:07;;;;;;;20.15;8.77;;;23.30;40.80;;;;;;10351977;28;20125;-53
2024/03/01 09:41:39;;;;;;;19.95;9.35;;;23.40;40.80;;;;;;10358103;28;20125;-56
2024/03/01 09:46:45;;;;;;;24.10;9.07;;;23.60;40.90;;;;;;10358283;28;20567;-52
2024/03/01 09:51:49;;;;;;;15.68;8.68;;;23.50;40.90;;;;;;10361518;28;20136;-57
2024/03/01 09:56:59;;;;;;;16.92;8.00;;;23.60;40.90;;;;;;10365578;28;20050;-55
2024/03/01 10:02:10;;;;;;;15.77;7.85;;;23.60;41.00;;;;;;10364539;28;20080;-56
2024/03/01 10:07:17;;;;;;;22.25;8.95;;;23.60;41.00;;;;;;10364283;28;20636;-57
2024/03/01 10:12:24;;;;;;;22.05;8.90;;;23.50;41.90;;;;;;10360755;28;20153;-56
2024/03/01 10:17:33;;;;;;;33.63;11.20;;;23.50;43.40;;;;;;10357948;28;20041;-57
2024/03/01 10:22:43;;;;;;;30.98;11.27;;;23.60;43.90;;;;;;10364022;28;20131;-53
2024/03/01 10:27:48;;;;;;;33.47;11.25;;;23.70;44.20;;;;;;10361622;28;20046;-55
2024/03/01 10:33:07;;;;;;;25.52;9.73;;;23.70;44.50;;;;;;10361114;28;20154;-56
2024/03/01 10:38:12;;;;;;;28.75;10.23;;;23.70;44.80;;;;;;10355118;28;20034;-55
2024/03/01 10:43:16;;;;;;;20.73;9.02;;;23.80;44.00;;;;;;10360396;28;20133;-54
2024/03/01 10:48:19;;;;;;;21.00;9.00;;;23.80;44.20;;;;;;10354927;28;20519;-56
2024/03/01 10:53:23;;;;;;;18.95;8.20;;;24.00;43.90;;;;;;10353336;28;20092;-56
2024/03/01 10:58:29;;;;;;;14.15;7.38;;;24.00;43.70;;;;;;10356879;28;20176;-56
2024/03/01 11:03:36;;;;;;;18.33;7.28;;;24.00;43.50;;;;;;10359706;28;20050;-54
2024/03/01 11:08:43;;;;;;;11.65;6.50;;;24.00;43.30;;;;;;10359164;28;20556;-55
2024/03/01 11:13:45;;;;;;;14.30;6.95;;;24.00;42.90;;;;;;10357803;28;20153;-56
2024/03/01 11:18:49;;;;;;;14.23;6.63;;;24.00;43.20;;;;;;10363464;28;20049;-57
2024/03/01 11:23:53;;;;;;;24.70;6.80;;;24.00;43.00;;;;;;10360063;28;20145;-56
2024/03/01 11:28:56;;;;;;;17.58;6.32;;;24.00;43.00;;;;;;10357996;28;20048;-57
2024/03/01 11:34:02;;;;;;;13.95;6.00;;;24.00;42.90;;;;;;10362930;28;20050;-54
2024/03/01 11:39:08;;;;;;;9.35;5.90;;;24.20;42.50;;;;;;10360744;28;20056;-53
2024/03/01 11:44:17;;;;;;;10.00;5.68;;;24.10;42.50;;;;;;10357283;28;20575;-55
2024/03/01 11:49:27;;;;;;;11.50;5.95;;;24.20;42.20;;;;;;10356049;28;20124;-53
2024/03/01 11:54:46;;;;;;;9.90;5.78;;;24.30;41.00;;;;;;10349329;28;20049;-55
2024/03/01 12:00:08;;;;;;;9.18;5.70;;;24.30;40.50;;;;;;10352376;28;20121;-56
2024/03/01 12:05:17;;;;;;;11.23;6.65;;;24.30;40.70;;;;;;10346861;28;20050;-51
2024/03/01 12:10:27;;;;;;;10.98;6.68;;;24.40;40.90;;;;;;10352132;28;20416;-57
2024/03/01 12:15:30;;;;;;;;;;;24.50;42.10;;;;;;10358443;28;20129;-55
2024/03/01 12:20:34;;;;;;;7.78;6.63;;;24.60;42.80;;;;;;10353843;28;20016;-54
2024/03/01 12:25:37;;;;;;;7.80;5.57;;;24.40;42.60;;;;;;10358155;28;20058;-56
2024/03/01 12:30:45;;;;;;;13.20;6.20;;;24.40;42.50;;;;;;10357856;28;20050;-55
2024/03/01 12:35:57;;;;;;;10.35;6.40;;;24.50;41.30;;;;;;10365786;28;20523;-56
2024/03/01 12:41:21;;;;;;;8.15;6.10;;;24.60;39.60;;;;;;10363984;28;20133;-57
2024/03/01 12:47:08;;;;;;;7.05;6.07;;;24.70;38.30;;;;;;10357793;28;20483;-54
2024/03/01 12:52:16;;;;;;;5.22;4.65;;;24.50;37.50;;;;;;10328503;28;20046;-58
2024/03/01 12:57:24;;;;;;;5.28;4.45;;;24.60;37.40;;;;;;10364785;28;20125;-54
2024/03/01 13:02:36;;;;;;;6.85;3.90;;;24.50;37.30;;;;;;10364044;28;20502;-56
2024/03/01 13:07:39;;;;;;;5.80;4.15;;;24.30;37.70;;;;;;10360047;28;20066;-52
2024/03/01 13:12:42;;;;;;;6.45;4.13;;;24.50;37.20;;;;;;10359771;28;20054;-53
2024/03/01 13:17:46;;;;;;;5.60;3.85;;;24.50;37.50;;;;;;10361593;28;20133;-51
2024/03/01 13:22:52;;;;;;;10.48;5.57;;;24.40;37.90;;;;;;10357177;28;20137;-52
2024/03/01 13:27:59;;;;;;;6.18;3.95;;;24.30;37.60;;;;;;10359856;28;20076;-53
2024/03/01 13:33:08;;;;;;;4.22;3.20;;;24.40;38.10;;;;;;10358657;28;20129;-49
2024/03/01 13:38:23;;;;;;;6.43;2.67;;;24.30;38.40;;;;;;10363381;28;20411;-47
2024/03/01 13:43:27;;;;;;;3.97;2.63;;;24.00;39.40;;;;;;10368078;28;20050;-47
2024/03/01 13:48:29;;;;;;;4.28;2.33;;;23.90;39.90;;;;;;10362863;28;20045;-48
2024/03/01 13:53:33;;;;;;;3.80;2.40;;;23.80;40.10;;;;;;10361503;28;20054;-52
2024/03/01 13:58:35;;;;;;;2.67;2.20;;;24.00;40.10;;;;;;10361924;28;20407;-50
2024/03/01 14:03:38;;;;;;;4.78;2.40;;;23.90;40.30;;;;;;10356227;28;20101;-48
2024/03/01 14:08:41;;;;;;;2.53;2.20;;;23.90;40.60;;;;;;10363400;28;20721;-48
2024/03/01 14:13:42;;;;;;;4.70;2.70;;;23.90;40.70;;;;;;10362071;28;20058;-50
2024/03/01 14:18:44;;;;;;;12.13;2.83;;;24.10;40.90;;;;;;10360430;28;20052;-48
2024/03/01 14:23:47;;;;;;;5.45;2.58;;;24.00;41.10;;;;;;10356369;28;20629;-48
2024/03/01 14:28:49;;;;;;;6.72;2.83;;;24.10;41.20;;;;;;10352572;28;20054;-51
2024/03/01 14:33:58;;;;;;;4.53;2.80;;;24.20;41.00;;;;;;10354313;28;20053;-50
2024/03/01 14:39:01;;;;;;;4.03;2.55;;;24.50;40.80;;;;;;10349981;28;20407;-52
2024/03/01 14:44:03;;;;;;;5.40;2.63;;;24.50;40.70;;;;;;10350548;28;20065;-53
2024/03/01 14:49:11;;;;;;;5.05;2.30;;;24.50;40.70;;;;;;10353612;28;20423;-53
2024/03/01 14:54:22;;;;;;;5.93;2.55;;;24.60;40.50;;;;;;10359302;28;20048;-57
2024/03/01 14:59:24;;;;;;;4.03;2.55;;;24.70;40.50;;;;;;10360973;28;20117;-57
2024/03/01 15:04:26;;;;;;;5.40;2.55;;;24.80;40.40;;;;;;10355067;28;20041;-49
2024/03/01 15:09:30;;;;;;;3.13;2.50;;;24.90;40.30;;;;;;10356255;28;20385;-52
2024/03/01 15:14:32;;;;;;;6.18;2.50;;;25.00;40.20;;;;;;10353892;28;20500;-49
2024/03/01 15:19:38;;;;;;;4.05;2.50;;;25.20;39.90;;;;;;10357566;28;20050;-51
2024/03/01 15:24:41;;;;;;;3.88;2.38;;;25.30;39.70;;;;;;10358268;28;20431;-52
2024/03/01 15:29:42;;;;;;;6.30;2.80;;;25.40;39.60;;;;;;10357725;28;20045;-49
2024/03/01 15:34:44;;;;;;;4.00;2.50;;;25.90;39.30;;;;;;10353877;28;20057;-53
2024/03/01 15:39:47;;;;;;;3.63;2.30;;;26.00;39.00;;;;;;10351807;28;20046;-49
2024/03/01 15:44:48;;;;;;;3.97;2.33;;;25.80;39.40;;;;;;10352834;28;20058;-49
2024/03/01 15:49:50;;;;;;;4.05;2.42;;;25.60;39.60;;;;;;10354816;28;20050;-50
2024/03/01 15:54:54;;;;;;;2.63;2.05;;;25.60;39.60;;;;;;10354372;28;20683;-51
2024/03/01 15:59:56;;;;;;;2.80;2.15;;;25.60;39.70;;;;;;10352928;28;20049;-48
2024/03/01 16:04:57;;;;;;;2.35;2.05;;;25.60;39.70;;;;;;10360697;28;20042;-49
2024/03/01 16:10:01;;;;;;;3.10;1.80;;;25.50;39.70;;;;;;10359047;28;20611;-48
2024/03/01 16:15:03;;;;;;;2.92;2.22;;;25.40;40.00;;;;;;10355780;28;20074;-48
2024/03/01 16:20:07;;;;;;;2.65;2.30;;;25.30;39.70;;;;;;10316815;28;20119;-51
2024/03/01 16:25:12;;;;;;;5.85;2.75;;;25.00;40.20;;;;;;10354487;28;20097;-54
2024/03/01 16:30:22;;;;;;;3.22;2.60;;;24.90;40.40;;;;;;10352098;28;20808;-50
2024/03/01 16:36:01;;;;;;;5.65;3.13;;;24.90;40.00;;;;;;10348549;28;20112;-53
2024/03/01 16:41:06;;;;;;;3.28;2.80;;;24.70;39.90;;;;;;10351735;28;20130;-53
2024/03/01 16:46:15;;;;;;;3.45;2.90;;;24.60;39.90;;;;;;10353736;28;20138;-52
2024/03/01 16:51:33;;;;;;;5.80;3.00;;;24.60;39.80;;;;;;10350828;28;20053;-51
2024/03/01 16:56:38;;;;;;;5.07;2.95;;;24.60;39.80;;;;;;10352312;28;20129;-51
2024/03/01 17:01:42;;;;;;;6.15;3.25;;;24.40;40.10;;;;;;10349372;28;20046;-54
2024/03/01 17:06:44;;;;;;;6.57;2.95;;;24.40;39.50;;;;;;10354602;28;20054;-57
2024/03/01 17:11:47;;;;;;;8.27;2.60;;;24.30;40.50;;;;;;10350867;28;20444;-51
2024/03/01 17:16:51;;;;;;;4.95;2.50;;;24.30;41.50;;;;;;10355735;28;20065;-54
2024/03/01 17:21:58;;;;;;;4.10;2.40;;;24.30;41.70;;;;;;10360457;28;20070;-52
2024/03/01 17:27:01;;;;;;;3.15;2.25;;;24.30;41.80;;;;;;10359740;28;20141;-56
2024/03/01 17:32:03;;;;;;;2.88;2.35;;;24.20;42.10;;;;;;10361077;28;20572;-55
2024/03/01 17:37:05;;;;;;;4.00;2.15;;;24.20;42.00;;;;;;10359437;28;20141;-57
2024/03/01 17:42:08;;;;;;;3.45;2.63;;;24.30;42.00;;;;;;10360741;28;20074;-52
2024/03/01 17:47:09;;;;;;;4.93;2.20;;;24.20;42.00;;;;;;10358795;28;20101;-54
2024/03/01 17:52:11;;;;;;;3.75;2.72;;;24.30;41.90;;;;;;10355965;28;20133;-53
2024/03/01 17:57:14;;;;;;;7.78;2.83;;;24.20;41.80;;;;;;10355154;28;20046;-56
2024/03/01 18:02:16;;;;;;;4.68;2.50;;;24.10;42.10;;;;;;10362224;28;20128;-55
2024/03/01 18:07:17;;;;;;;5.53;2.47;;;24.00;42.40;;;;;;10359289;28;20548;-55
2024/03/01 18:12:20;;;;;;;5.95;2.75;;;24.10;41.90;;;;;;10359826;28;20054;-56
2024/03/01 18:17:25;;;;;;;5.95;2.88;;;24.00;42.20;;;;;;10360089;28;20069;-56
2024/03/01 18:22:27;;;;;;;6.88;2.78;;;23.90;42.90;;;;;;10361655;28;20072;-56
2024/03/01 18:27:31;;;;;;;8.98;2.58;;;24.00;43.70;;;;;;10363957;28;21799;-52
2024/03/01 18:32:32;;;;;;;7.90;2.25;;;24.10;44.50;;;;;;10366166;28;20053;-52
2024/03/01 18:37:34;;;;;;;6.68;2.58;;;24.10;45.00;;;;;;10364416;28;20157;-54
2024/03/01 18:42:37;;;;;;;19.35;2.80;;;24.10;45.10;;;;;;10358631;28;20049;-55
2024/03/01 18:47:39;;;;;;;6.63;2.60;;;24.20;45.60;;;;;;10358215;28;20482;-53
2024/03/01 18:52:40;;;;;;;20.48;2.50;;;24.30;45.90;;;;;;10363054;28;20133;-53
2024/03/01 18:57:43;;;;;;;8.63;2.42;;;24.40;46.40;;;;;;10361428;28;20132;-56
2024/03/01 19:02:45;;;;;;;5.43;2.50;;;24.50;46.40;;;;;;10358304;28;20120;-53
2024/03/01 19:07:46;;;;;;;8.30;2.35;;;24.40;46.90;;;;;;10355646;28;20145;-59
2024/03/01 19:12:49;;;;;;;6.13;2.55;;;24.70;46.30;;;;;;10355790;28;20515;-58
2024/03/01 19:17:51;;;;;;;7.28;2.58;;;24.70;46.10;;;;;;10356998;28;20037;-60
2024/03/01 19:22:53;;;;;;;9.88;2.45;;;24.70;46.40;;;;;;10359223;28;20133;-59
2024/03/01 19:27:56;;;;;;;10.98;2.80;;;24.90;46.20;;;;;;10354947;28;20057;-58
2024/03/01 19:32:57;;;;;;;8.30;2.25;;;24.70;46.00;;;;;;10350983;28;20121;-56
2024/03/01 19:37:59;;;;;;;7.90;2.22;;;24.80;46.10;;;;;;10357100;28;20050;-58
2024/03/01 19:43:02;;;;;;;6.97;2.35;;;24.20;48.80;;;;;;10358370;28;20045;-55
2024/03/01 19:48:05;;;;;;;5.65;2.40;;;24.60;46.60;;;;;;10358181;28;20052;-54
2024/03/01 19:53:06;;;;;;;5.68;2.15;;;24.80;45.80;;;;;;10356803;28;20046;-58
2024/03/01 19:58:09;;;;;;;5.40;2.03;;;24.80;45.40;;;;;;10358033;28;20042;-54
2024/03/01 20:03:11;;;;;;;8.43;2.50;;;24.90;45.20;;;;;;10358740;28;20053;-58
2024/03/01 20:08:12;;;;;;;6.25;2.50;;;24.90;45.50;;;;;;10358265;28;20038;-55
2024/03/01 20:13:15;;;;;;;7.38;2.50;;;24.70;47.10;;;;;;10356792;28;20057;-57
2024/03/01 20:24:15;;;;;;;7.13;2.45;;;24.80;46.20;;;;;;10348264;28;20427;-60
2024/03/01 20:29:18;;;;;;;7.10;2.67;;;24.90;46.00;;;;;;10345575;28;20126;-59
2024/03/01 20:34:20;;;;;;;8.45;2.50;;;24.90;46.00;;;;;;10353434;28;20073;-55
2024/03/01 20:39:21;;;;;;;12.07;2.50;;;25.00;46.00;;;;;;10352024;28;20438;-52
2024/03/01 20:44:25;;;;;;;7.68;2.53;;;24.80;45.90;;;;;;10349696;28;20088;-54
2024/03/01 20:49:28;;;;;;;7.10;2.85;;;24.80;45.80;;;;;;10349639;28;20050;-53
2024/03/01 20:54:32;;;;;;;4.75;2.85;;;24.70;45.60;;;;;;10359217;28;20058;-58
2024/03/01 20:59:35;;;;;;;5.90;3.13;;;24.30;45.90;;;;;;10363138;28;20045;-56
2024/03/01 21:04:37;;;;;;;5.30;3.20;;;24.10;45.90;;;;;;10356152;28;20049;-56
2024/03/01 21:09:38;;;;;;;6.93;3.03;;;23.90;46.50;;;;;;10357406;28;20046;-55
2024/03/01 21:14:41;;;;;;;5.72;3.03;;;23.90;46.50;;;;;;10359948;28;20042;-58
2024/03/01 21:19:43;;;;;;;4.80;3.20;;;24.00;45.80;;;;;;10359912;28;20104;-54
2024/03/01 21:24:45;;;;;;;5.07;3.13;;;24.00;45.60;;;;;;10351876;28;20064;-55
2024/03/01 21:29:48;;;;;;;6.90;3.35;;;23.70;46.10;;;;;;10356646;28;20492;-57
2024/03/01 21:34:49;;;;;;;5.03;3.30;;;23.60;46.20;;;;;;10355093;28;20389;-53
2024/03/01 21:39:51;;;;;;;5.55;3.25;;;23.50;46.50;;;;;;10351540;28;20125;-55
2024/03/01 21:44:54;;;;;;;3.97;3.40;;;23.30;47.10;;;;;;10356706;28;20203;-57
2024/03/01 21:49:55;;;;;;;6.15;3.45;;;23.30;46.40;;;;;;10355082;28;20484;-55
2024/03/01 21:54:57;;;;;;;5.20;3.33;;;23.20;46.50;;;;;;10354195;28;20480;-54
2024/03/01 22:00:00;;;;;;;6.00;3.30;;;23.20;46.30;;;;;;10354281;28;20137;-56
2024/03/01 22:05:02;;;;;;;3.85;3.10;;;23.30;46.70;;;;;;10362686;28;20141;-58
2024/03/01 22:10:06;;;;;;;4.70;2.90;;;23.40;47.10;;;;;;10357899;28;20042;-58
2024/03/01 22:15:10;;;;;;;5.43;3.10;;;23.40;46.40;;;;;;10357620;28;20603;-56
2024/03/01 22:20:12;;;;;;;3.83;3.17;;;23.40;46.30;;;;;;10352928;28;20076;-55
2024/03/01 22:25:14;;;;;;;3.72;3.10;;;23.20;46.20;;;;;;10350862;28;20042;-56
2024/03/01 22:30:20;;;;;;;3.50;3.20;;;23.30;45.70;;;;;;10352316;28;20038;-57
2024/03/01 22:35:21;;;;;;;4.82;2.90;;;23.30;45.70;;;;;;10355522;28;20191;-57
2024/03/01 22:40:26;;;;;;;3.22;2.90;;;23.30;45.30;;;;;;10357936;28;20145;-54
2024/03/01 22:45:29;;;;;;;4.90;2.90;;;23.30;44.70;;;;;;10358350;28;20576;-56
2024/03/01 22:50:33;;;;;;;6.47;3.00;;;23.30;45.40;;;;;;10352700;28;20049;-53
2024/03/01 22:55:39;;;;;;;6.03;2.83;;;23.20;45.70;;;;;;10346150;28;20511;-56
2024/03/01 23:00:45;;;;;;;7.55;3.00;;;23.10;45.90;;;;;;10350248;28;20046;-57
2024/03/01 23:05:48;;;;;;;4.95;2.80;;;22.80;47.10;;;;;;10349260;28;20077;-58
2024/03/01 23:10:50;;;;;;;7.13;2.92;;;22.80;47.80;;;;;;10348299;28;20042;-56
2024/03/01 23:15:53;;;;;;;4.68;2.88;;;22.80;48.70;;;;;;10355765;28;20121;-54
2024/03/01 23:20:55;;;;;;;7.50;2.88;;;23.30;46.90;;;;;;10357484;28;20554;-55
2024/03/01 23:25:56;;;;;;;7.57;2.63;;;23.10;47.70;;;;;;10356063;28;20476;-56
2024/03/01 23:30:59;;;;;;;6.85;2.72;;;22.60;48.80;;;;;;10353472;28;20129;-57
2024/03/01 23:36:01;;;;;;;9.57;3.03;;;22.50;49.00;;;;;;10348876;28;20129;-54
2024/03/01 23:41:07;;;;;;;10.30;2.88;;;22.40;49.10;;;;;;10348027;28;20125;-55
2024/03/01 23:46:10;;;;;;;7.00;2.85;;;22.30;49.50;;;;;;10340466;28;20129;-57
2024/03/01 23:51:12;;;;;;;8.15;3.17;;;22.30;49.40;;;;;;10355328;28;20133;-54
2024/03/01 23:56:16;;;;;;;4.25;2.65;;;22.30;49.50;;;;;;10351458;28;20048;-57
